createdAt,value
2022-11-24T00:04:53.826Z,26.70
2022-11-24T00:09:56.308Z,32.83
2022-11-24T00:14:58.880Z,28.38
2022-11-24T00:20:02.811Z,47.23
2022-11-24T00:25:05.694Z,28.73
2022-11-24T00:30:09.503Z,26.83
2022-11-24T00:35:13.319Z,18.90
2022-11-24T00:40:15.821Z,21.38
2022-11-24T00:45:18.305Z,21.13
2022-11-24T00:50:22.514Z,24.58
2022-11-24T00:55:25.055Z,26.58
2022-11-24T01:00:27.541Z,22.55
2022-11-24T01:05:31.406Z,19.17
2022-11-24T01:10:34.379Z,25.58
2022-11-24T01:15:37.175Z,22.48
2022-11-24T01:20:41.225Z,25.33
2022-11-24T01:25:43.696Z,24.83
2022-11-24T01:30:47.433Z,23.10
2022-11-24T01:35:51.316Z,27.70
2022-11-24T01:41:01.420Z,18.27
2022-11-24T01:46:06.140Z,20.25
2022-11-24T01:51:12.467Z,21.27
2022-11-24T01:56:15.174Z,21.25
2022-11-24T02:01:17.715Z,25.83
2022-11-24T02:06:23.632Z,23.23
2022-11-24T02:11:27.671Z,24.75
2022-11-24T02:16:30.837Z,19.95
2022-11-24T02:21:34.742Z,19.02
2022-11-24T02:26:42.034Z,23.00
2022-11-24T02:31:47.680Z,20.20
2022-11-24T02:36:50.204Z,17.40
2022-11-24T02:41:55.575Z,20.13
2022-11-24T02:47:05.410Z,14.82
2022-11-24T02:52:07.940Z,17.38
2022-11-24T02:57:12.090Z,19.63
2022-11-24T03:02:14.606Z,15.95
2022-11-24T03:07:17.127Z,22.17
2022-11-24T03:12:21.039Z,18.75
2022-11-24T03:17:23.524Z,18.90
2022-11-24T03:22:26.020Z,18.65
2022-11-24T03:27:31.047Z,15.60
2022-11-24T03:32:33.527Z,24.50
2022-11-24T03:37:35.989Z,17.38
2022-11-24T03:42:40.519Z,18.65
2022-11-24T03:47:43.008Z,15.98
2022-11-24T03:52:45.487Z,17.50
2022-11-24T03:57:49.373Z,18.45
2022-11-24T04:02:51.872Z,18.98
2022-11-24T04:07:56.260Z,13.30
2022-11-24T04:13:00.119Z,15.88
2022-11-24T04:18:02.534Z,18.98
2022-11-24T04:23:05.149Z,16.63
2022-11-24T04:28:08.872Z,25.15
2022-11-24T04:33:11.583Z,18.30
2022-11-24T04:38:13.991Z,19.40
2022-11-24T04:43:40.604Z,15.65
2022-11-24T04:48:43.353Z,17.13
2022-11-24T04:53:45.812Z,17.33
2022-11-24T04:58:50.250Z,20.20
2022-11-24T05:03:54.013Z,24.58
2022-11-24T05:08:56.385Z,21.15
2022-11-24T05:14:00.091Z,23.88
2022-11-24T05:19:02.457Z,19.17
2022-11-24T05:24:05.142Z,19.70
2022-11-24T05:29:08.855Z,20.17
2022-11-24T05:34:11.593Z,18.00
2022-11-24T05:39:13.929Z,19.80
2022-11-24T05:44:17.632Z,20.70
2022-11-24T05:49:19.956Z,20.02
2022-11-24T05:54:22.290Z,23.52
2022-11-24T05:59:25.942Z,13.30
2022-11-24T06:04:28.377Z,21.40
2022-11-24T06:09:30.773Z,14.23
2022-11-24T06:14:34.418Z,18.17
2022-11-24T06:19:41.882Z,16.02
2022-11-24T06:24:44.678Z,13.57
2022-11-24T06:29:47.513Z,18.90
2022-11-24T06:34:51.213Z,14.93
2022-11-24T06:39:53.562Z,18.10
2022-11-24T06:44:55.894Z,12.43
2022-11-24T06:50:00.671Z,19.45
2022-11-24T06:55:03.058Z,19.20
2022-11-24T07:00:06.443Z,17.42
2022-11-24T07:05:10.607Z,14.23
2022-11-24T07:10:13.026Z,16.58
2022-11-24T07:15:15.433Z,13.18
2022-11-24T07:20:19.286Z,16.75
2022-11-24T07:25:21.805Z,10.98
2022-11-24T07:30:24.269Z,13.52
2022-11-24T07:35:28.024Z,11.98
2022-11-24T07:40:30.448Z,8.93
2022-11-24T07:45:33.212Z,9.40
2022-11-24T07:50:37.045Z,7.23
2022-11-24T07:55:39.416Z,13.45
2022-11-24T08:00:41.757Z,13.18
2022-11-24T08:06:22.289Z,8.35
2022-11-24T08:11:17.042Z,11.38
2022-11-24T08:16:20.221Z,9.48
2022-11-24T08:21:24.387Z,8.13
2022-11-24T08:26:26.750Z,7.57
2022-11-24T08:31:33.432Z,7.00
2022-11-24T08:36:37.546Z,7.72
2022-11-24T08:41:39.922Z,7.68
2022-11-24T08:46:42.397Z,7.72
2022-11-24T08:51:46.953Z,9.73
2022-11-24T08:56:50.075Z,14.25
2022-11-24T09:01:52.473Z,12.00
2022-11-24T09:06:56.199Z,13.55
2022-11-24T09:11:58.549Z,13.75
2022-11-24T09:17:00.948Z,15.52
2022-11-24T09:22:04.776Z,15.63
2022-11-24T09:27:07.150Z,13.13
2022-11-24T09:32:09.489Z,9.45
2022-11-24T09:37:13.253Z,14.00
2022-11-24T09:42:16.543Z,11.65
2022-11-24T09:47:22.461Z,13.02
2022-11-24T09:52:32.725Z,12.35
2022-11-24T09:57:37.732Z,13.13
2022-11-24T10:02:40.325Z,13.68
2022-11-24T10:07:46.215Z,12.93
2022-11-24T10:12:56.096Z,15.45
2022-11-24T10:18:03.746Z,15.05
2022-11-24T10:23:16.826Z,12.65
2022-11-24T10:28:19.191Z,12.50
2022-11-24T10:33:28.781Z,13.23
2022-11-24T10:38:36.647Z,11.73
2022-11-24T10:43:41.197Z,15.68
2022-11-24T10:48:46.607Z,11.90
2022-11-24T10:53:52.860Z,11.38
2022-11-24T10:58:55.273Z,11.68
2022-11-24T11:03:58.989Z,8.73
2022-11-24T11:09:19.127Z,8.88
2022-11-24T11:14:39.580Z,6.60
2022-11-24T11:19:52.396Z,7.80
2022-11-24T11:25:07.087Z,8.13
2022-11-24T11:35:46.630Z,11.18
2022-11-24T11:45:58.342Z,7.03
2022-11-24T11:56:27.094Z,12.93
2022-11-24T12:01:47.442Z,6.15
2022-11-24T12:07:04.738Z,9.63
2022-11-24T12:12:16.192Z,5.07
2022-11-24T12:17:22.306Z,9.43
2022-11-24T12:22:29.438Z,8.75
2022-11-24T12:27:41.689Z,10.73
2022-11-24T12:32:53.442Z,11.60
2022-11-24T12:38:01.172Z,8.90
2022-11-24T12:43:08.880Z,7.15
2022-11-24T12:48:16.421Z,10.15
2022-11-24T12:53:20.902Z,8.50
2022-11-24T12:58:28.808Z,8.75
2022-11-24T13:03:37.243Z,11.07
2022-11-24T13:08:40.086Z,7.95
2022-11-24T13:13:57.632Z,13.07
2022-11-24T13:19:01.415Z,14.82
2022-11-24T13:24:05.355Z,12.65
2022-11-24T13:29:29.931Z,8.70
2022-11-24T13:34:48.376Z,10.82
2022-11-24T13:39:51.529Z,11.88
2022-11-24T13:44:56.630Z,20.70
2022-11-24T13:49:59.359Z,12.80
2022-11-24T13:55:04.910Z,20.92
2022-11-24T14:00:19.293Z,15.77
2022-11-24T14:05:23.676Z,9.55
2022-11-24T14:10:30.678Z,12.25
2022-11-24T14:15:35.491Z,20.13
2022-11-24T14:20:37.857Z,14.65
2022-11-24T14:25:40.584Z,6.97
2022-11-24T14:30:44.335Z,17.43
2022-11-24T14:35:47.500Z,13.68
2022-11-24T14:40:51.274Z,15.52
2022-11-24T14:45:56.625Z,13.73
2022-11-24T14:51:06.917Z,13.32
2022-11-24T14:56:10.922Z,13.80
2022-11-24T15:01:21.357Z,14.52
2022-11-24T15:06:24.529Z,18.48
2022-11-24T15:11:27.020Z,16.40
2022-11-24T15:16:31.576Z,13.48
2022-11-24T15:21:34.615Z,10.32
2022-11-24T15:26:42.247Z,14.35
2022-11-24T15:31:52.181Z,16.05
2022-11-24T15:36:55.187Z,17.33
2022-11-24T15:41:57.616Z,15.57
2022-11-24T15:47:01.451Z,18.02
2022-11-24T15:52:03.960Z,18.35
2022-11-24T15:57:06.399Z,20.40
2022-11-24T16:02:10.994Z,14.95
2022-11-24T16:07:13.666Z,23.02
2022-11-24T16:12:16.077Z,23.10
2022-11-24T16:17:19.780Z,12.40
2022-11-24T16:22:22.245Z,19.25
2022-11-24T16:27:24.665Z,14.65
2022-11-24T16:32:28.407Z,20.25
2022-11-24T16:37:32.022Z,17.70
2022-11-24T16:42:34.382Z,21.98
2022-11-24T16:47:41.605Z,24.20
2022-11-24T16:52:43.949Z,22.83
2022-11-24T16:57:46.967Z,16.30
2022-11-24T17:02:50.772Z,22.25
2022-11-24T17:07:53.263Z,14.68
2022-11-24T17:12:55.673Z,20.65
2022-11-24T17:18:23.510Z,19.13
2022-11-24T17:23:22.772Z,21.43
2022-11-24T17:28:25.223Z,14.27
2022-11-24T17:33:30.405Z,20.42
2022-11-24T17:38:33.101Z,20.70
2022-11-24T17:43:35.645Z,16.77
2022-11-24T17:48:39.411Z,24.15
2022-11-24T17:53:42.413Z,20.85
2022-11-24T17:58:45.182Z,23.23
2022-11-24T18:03:53.364Z,19.97
2022-11-24T18:08:57.040Z,21.80
2022-11-24T18:14:01.658Z,19.90
2022-11-24T18:19:10.773Z,22.83
2022-11-24T18:24:17.400Z,20.08
2022-11-24T18:29:22.627Z,21.98
2022-11-24T18:34:26.348Z,22.52
2022-11-24T18:39:29.773Z,24.17
2022-11-24T18:44:32.333Z,19.90
2022-11-24T18:49:36.262Z,20.53
2022-11-24T18:54:38.892Z,19.00
2022-11-24T18:59:41.266Z,14.57
2022-11-24T19:04:44.977Z,23.38
2022-11-24T19:09:47.659Z,14.75
2022-11-24T19:14:50.005Z,21.20
2022-11-24T19:19:53.725Z,18.42
2022-11-24T19:24:56.114Z,18.20
2022-11-24T19:29:58.582Z,23.20
2022-11-24T19:35:02.299Z,20.80
2022-11-24T19:40:04.911Z,19.77
2022-11-24T19:45:08.082Z,23.43
2022-11-24T19:50:12.689Z,18.73
2022-11-24T19:55:20.261Z,17.13
2022-11-24T20:00:22.662Z,18.73
2022-11-24T20:05:26.372Z,15.68
2022-11-24T20:10:28.814Z,16.80
2022-11-24T20:15:31.267Z,15.57
2022-11-24T20:20:34.960Z,14.05
2022-11-24T20:25:37.721Z,15.63
2022-11-24T20:30:40.201Z,16.50
2022-11-24T20:35:43.921Z,21.70
2022-11-24T20:40:46.297Z,9.73
2022-11-24T20:45:48.770Z,14.95
2022-11-24T20:50:52.699Z,14.32
2022-11-24T20:56:05.583Z,15.27
2022-11-24T21:01:09.337Z,11.65
2022-11-24T21:06:13.402Z,18.25
2022-11-24T21:11:16.121Z,21.10
2022-11-24T21:16:23.412Z,15.47
2022-11-24T21:21:33.295Z,16.60
2022-11-24T21:26:35.913Z,12.38
2022-11-24T21:31:39.402Z,15.33
2022-11-24T21:41:48.933Z,15.80
2022-11-24T21:46:55.860Z,14.07
2022-11-24T21:51:58.739Z,14.50
2022-11-24T21:57:02.492Z,16.08
2022-11-24T22:02:10.260Z,15.07
2022-11-24T22:07:15.366Z,12.43
2022-11-24T22:12:19.211Z,13.63
2022-11-24T22:17:21.610Z,13.00
2022-11-24T22:22:23.970Z,16.48
2022-11-24T22:27:27.680Z,14.95
2022-11-24T22:32:30.071Z,14.50
2022-11-24T22:37:32.411Z,22.08
2022-11-24T22:42:36.096Z,17.17
2022-11-24T22:47:38.456Z,15.85
2022-11-24T22:52:40.808Z,16.67
2022-11-24T22:57:48.110Z,22.48
2022-11-24T23:02:50.901Z,22.40
2022-11-24T23:07:53.312Z,20.80
2022-11-24T23:12:57.135Z,22.63
2022-11-24T23:17:59.516Z,18.42
2022-11-24T23:23:01.927Z,14.77
2022-11-24T23:28:05.867Z,18.67
2022-11-24T23:33:08.271Z,14.18
2022-11-24T23:38:10.644Z,20.90
2022-11-24T23:43:14.360Z,21.77
2022-11-24T23:48:16.747Z,19.13
2022-11-24T23:53:19.051Z,17.95
2022-11-24T23:58:22.751Z,18.42
